Time;durP1;ratioP1;P1;durP2;ratioP2;P2;SDS_P1;SDS_P2;PMS_P1;PMS_P2;Temp;Humidity;BMP_temperature;BMP_pressure;BME280_temperature;BME280_humidity;BME280_pressure;Samples;Min_cycle;Max_cycle;Signal;HPM_P1;HPM_P2
2022/12/28 00:00:16;;;;;;;4.57;1.40;;;7.00;99.90;;;6.76;100.00;101381.97;5154683;28;20051;-86
2022/12/28 00:02:48;;;;;;;6.25;1.67;;;7.00;99.90;;;6.77;100.00;101374.28;5230958;23;20045;-82
2022/12/28 00:05:22;;;;;;;3.15;1.20;;;6.90;99.90;;;6.77;100.00;101376.88;5190174;28;20073;-81
2022/12/28 00:07:54;;;;;;;3.35;1.20;;;7.00;99.90;;;6.80;100.00;101364.13;5204096;28;20050;-81
2022/12/28 00:10:27;;;;;;;4.47;1.52;;;7.00;99.90;;;6.84;100.00;101367.75;5170349;28;20058;-80
2022/12/28 00:12:59;;;;;;;5.65;1.52;;;7.10;99.90;;;6.91;100.00;101363.84;5179375;28;20049;-82
2022/12/28 00:15:31;;;;;;;5.70;1.33;;;7.10;99.90;;;6.89;100.00;101349.91;5172385;28;20054;-82
2022/12/28 00:18:04;;;;;;;2.28;1.13;;;7.10;99.90;;;6.86;100.00;101349.75;5176035;28;20046;-80
2022/12/28 00:20:36;;;;;;;3.38;1.20;;;7.10;99.90;;;6.88;100.00;101350.72;5197271;28;20096;-80
2022/12/28 00:23:08;;;;;;;1.70;1.10;;;7.10;99.90;;;6.91;100.00;101361.25;5193649;28;20060;-81
2022/12/28 00:25:41;;;;;;;2.55;1.20;;;7.10;99.90;;;6.90;100.00;101364.66;5210333;28;20060;-80
2022/12/28 00:28:13;;;;;;;2.78;1.42;;;7.10;99.90;;;6.92;100.00;101355.28;5209249;28;20052;-81
2022/12/28 00:30:45;;;;;;;3.00;1.30;;;7.10;99.90;;;6.94;100.00;101356.25;5202318;28;20104;-81
2022/12/28 00:33:17;;;;;;;2.50;1.52;;;7.10;99.90;;;6.94;100.00;101361.44;5202785;28;20514;-81
2022/12/28 00:35:53;;;;;;;2.85;1.15;;;7.10;99.90;;;6.94;100.00;101358.84;5209840;28;20061;-81
2022/12/28 00:38:26;;;;;;;2.40;1.15;;;7.10;99.90;;;6.92;100.00;101340.63;5211408;28;20057;-82
2022/12/28 00:41:00;;;;;;;2.80;1.13;;;7.20;99.90;;;6.91;100.00;101341.44;5212366;28;20076;-80
2022/12/28 00:43:32;;;;;;;4.93;1.30;;;7.10;99.90;;;6.93;100.00;101339.81;5199760;28;20056;-81
2022/12/28 00:46:05;;;;;;;2.00;1.05;;;7.10;99.90;;;6.95;100.00;101334.72;5192309;28;20452;-80
2022/12/28 00:48:39;;;;;;;5.53;1.67;;;7.10;99.90;;;6.96;100.00;101326.13;5203462;28;20112;-80
2022/12/28 00:51:16;;;;;;;4.18;0.90;;;7.10;99.90;;;6.99;100.00;101315.94;5207722;28;20490;-83
2022/12/28 00:53:48;;;;;;;1.42;0.95;;;7.20;99.90;;;6.99;100.00;101316.84;5195175;28;20057;-80
2022/12/28 00:56:22;;;;;;;2.75;1.23;;;7.20;99.90;;;7.02;100.00;101316.09;5215936;28;20616;-80
2022/12/28 00:58:57;;;;;;;3.20;1.27;;;7.20;99.90;;;7.04;100.00;101311.91;5209987;28;20052;-81
2022/12/28 01:01:29;;;;;;;3.25;1.23;;;7.20;99.90;;;7.08;100.00;101312.16;5196563;28;20573;-81
2022/12/28 01:04:02;;;;;;;3.05;1.50;;;7.20;99.90;;;7.12;100.00;101297.69;5194442;28;20045;-81
2022/12/28 01:06:35;;;;;;;2.03;0.90;;;7.30;99.90;;;7.08;100.00;101301.78;5193287;28;20049;-81
2022/12/28 01:09:07;;;;;;;2.45;1.27;;;7.30;99.90;;;7.14;100.00;101293.47;5210163;28;20044;-81
2022/12/28 01:11:40;;;;;;;5.90;1.25;;;7.30;99.90;;;7.16;100.00;101284.06;5190218;28;20116;-81
2022/12/28 01:14:12;;;;;;;3.05;1.40;;;7.30;99.90;;;7.17;100.00;101283.28;5191488;28;20141;-80
2022/12/28 01:16:44;;;;;;;4.15;1.63;;;7.30;99.90;;;7.24;100.00;101277.63;5175369;28;20400;-80
2022/12/28 01:19:20;;;;;;;2.05;1.25;;;7.40;99.90;;;7.26;100.00;101273.41;5209150;28;20046;-80
2022/12/28 01:21:53;;;;;;;3.10;1.10;;;7.40;99.90;;;7.29;100.00;101270.09;5209549;28;20513;-80
2022/12/28 01:24:24;;;;;;;2.60;1.30;;;7.40;99.90;;;7.32;100.00;101265.09;5210060;28;20395;-80
2022/12/28 01:26:58;;;;;;;2.10;1.08;;;7.50;99.90;;;7.35;100.00;101260.06;5205616;28;20049;-80
2022/12/28 01:29:31;;;;;;;1.83;1.10;;;7.50;99.90;;;7.38;100.00;101252.47;5197585;28;20422;-80
2022/12/28 01:32:03;;;;;;;2.28;1.65;;;7.50;99.90;;;7.43;100.00;101248.41;5206749;28;20526;-80
2022/12/28 01:34:35;;;;;;;3.00;1.20;;;7.60;99.90;;;7.46;100.00;101245.09;5211767;28;20038;-80
2022/12/28 01:37:07;;;;;;;5.32;1.33;;;7.60;99.90;;;7.50;100.00;101244.47;5210424;28;20037;-80
2022/12/28 01:39:40;;;;;;;2.08;1.17;;;7.60;99.90;;;7.50;100.00;101239.28;5189746;28;20045;-81
2022/12/28 01:42:19;;;;;;;2.17;1.17;;;7.70;99.90;;;7.50;100.00;101239.28;5207523;28;20396;-81
2022/12/28 01:44:52;;;;;;;3.03;1.40;;;7.70;99.90;;;7.52;100.00;101235.06;5190084;28;20046;-80
2022/12/28 01:47:32;;;;;;;1.35;1.17;;;7.70;99.90;;;7.53;100.00;101226.47;5205508;28;20132;-83
2022/12/28 01:50:10;;;;;;;3.65;1.50;;;7.70;99.90;;;7.52;100.00;101229.88;5215778;28;20049;-82
2022/12/28 01:52:49;;;;;;;3.28;1.40;;;7.70;99.90;;;7.53;100.00;101222.16;5214708;28;20041;-82
2022/12/28 01:55:24;;;;;;;2.40;1.23;;;7.70;99.90;;;7.56;100.00;101222.34;5205550;28;20053;-81
2022/12/28 01:58:03;;;;;;;3.17;1.20;;;7.70;99.90;;;7.59;100.00;101213.81;5195111;28;20393;-80
2022/12/28 02:00:36;;;;;;;1.48;1.13;;;7.70;99.90;;;7.60;100.00;101223.38;5194128;28;20049;-80
2022/12/28 02:03:13;;;;;;;2.53;1.30;;;7.70;99.90;;;7.58;100.00;101207.72;5194617;28;20099;-80
2022/12/28 02:05:49;;;;;;;2.92;1.10;;;7.70;99.90;;;7.62;100.00;101199.28;5195604;28;20056;-81
2022/12/28 02:08:28;;;;;;;3.42;1.23;;;7.80;99.90;;;7.61;100.00;101191.44;5201043;28;20065;-81
2022/12/28 02:11:01;;;;;;;2.83;1.13;;;7.80;99.90;;;7.62;100.00;101188.00;5202623;28;20110;-82
2022/12/28 02:13:36;;;;;;;4.00;1.17;;;7.80;99.90;;;7.66;100.00;101186.50;5205943;28;20057;-83
2022/12/28 02:16:10;;;;;;;3.45;1.58;;;7.80;99.90;;;7.67;100.00;101183.06;5206413;28;20045;-82
2022/12/28 02:18:45;;;;;;;2.13;1.20;;;7.80;99.90;;;7.65;100.00;101177.81;5209828;28;20069;-83
2022/12/28 02:21:24;;;;;;;2.58;1.10;;;7.80;99.90;;;7.66;100.00;101177.00;5210255;28;20052;-82
2022/12/28 02:24:51;;;;;;;3.60;1.30;;;7.80;99.90;;;7.66;100.00;101174.41;5224083;28;20048;-82
2022/12/28 02:27:32;;;;;;;4.15;1.63;;;7.80;99.90;;;7.67;100.00;101176.19;5213724;28;20046;-81
2022/12/28 02:30:07;;;;;;;2.97;1.35;;;7.90;99.90;;;7.69;100.00;101169.34;5214616;28;20041;-80
2022/12/28 02:32:55;;;;;;;3.05;1.45;;;7.90;99.90;;;7.71;100.00;101161.69;5214996;28;20045;-83
2022/12/28 02:35:37;;;;;;;2.67;1.25;;;7.90;99.90;;;7.71;100.00;101157.38;5200856;28;20116;-82
2022/12/28 02:38:15;;;;;;;1.98;1.25;;;7.90;99.90;;;7.70;100.00;101159.91;5200651;28;20057;-81
2022/12/28 02:40:52;;;;;;;2.78;1.23;;;7.90;99.90;;;7.70;100.00;101145.22;5219521;28;20053;-82
2022/12/28 02:43:24;;;;;;;1.77;1.17;;;7.90;99.90;;;7.73;100.00;101144.47;5202702;28;20041;-80
2022/12/28 02:52:11;;;;;;;2.05;1.17;;;7.90;99.90;;;7.78;100.00;101143.00;5139619;28;20607;-83
2022/12/28 02:58:20;;;;;;;3.13;1.20;;;7.90;99.90;;;7.83;100.00;101125.97;5205440;28;20144;-81
2022/12/28 03:01:10;;;;;;;3.80;1.35;;;7.90;99.90;;;7.83;100.00;101110.41;5194618;28;20049;-81
2022/12/28 03:03:57;;;;;;;1.98;1.13;;;7.90;99.90;;;7.82;100.00;101109.53;5198787;28;20041;-81
2022/12/28 03:09:40;;;;;;;2.72;1.30;;;8.00;99.90;;;7.89;100.00;101089.97;5193333;28;20049;-81
2022/12/28 03:12:25;;;;;;;2.35;1.25;;;8.00;99.90;;;7.88;100.00;101086.44;5195303;28;20046;-79
2022/12/28 03:15:03;;;;;;;1.77;1.23;;;8.10;99.90;;;7.87;100.00;101084.66;5191952;28;20046;-81
2022/12/28 03:32:01;;;;;;;2.35;1.27;;;8.10;99.90;;;7.98;100.00;101068.75;5212015;28;20446;-81
2022/12/28 03:34:36;;;;;;;1.75;1.05;;;8.10;99.90;;;8.00;100.00;101059.31;5213182;28;20854;-79
2022/12/28 03:37:17;;;;;;;2.47;1.40;;;8.10;99.90;;;8.01;100.00;101063.69;5208469;28;20153;-81
2022/12/28 03:39:55;;;;;;;2.60;1.30;;;8.10;99.90;;;8.02;100.00;101057.66;5190019;28;20128;-84
2022/12/28 03:45:32;;;;;;;2.08;1.33;;;8.20;99.90;;;8.05;100.00;101050.06;5191364;28;20046;-80
2022/12/28 03:48:06;;;;;;;2.15;1.10;;;8.20;99.90;;;8.07;100.00;101048.41;5190957;28;20532;-80
2022/12/28 03:50:43;;;;;;;3.10;1.05;;;8.20;99.90;;;8.06;100.00;101041.44;5190641;28;20038;-80
2022/12/28 03:53:17;;;;;;;1.67;1.20;;;8.20;99.90;;;8.06;100.00;101039.75;5191589;28;20085;-80
2022/12/28 03:55:49;;;;;;;2.17;1.15;;;8.20;99.90;;;8.11;100.00;101034.78;5207086;28;20045;-80
2022/12/28 03:58:24;;;;;;;1.83;1.05;;;8.20;99.90;;;8.15;100.00;101027.22;5191765;28;20137;-81
2022/12/28 04:00:57;;;;;;;1.90;1.13;;;8.30;99.90;;;8.14;100.00;101034.91;5208097;28;20073;-81
2022/12/28 04:03:29;;;;;;;1.65;1.20;;;8.30;99.90;;;8.15;100.00;101022.03;5191688;28;20638;-80
2022/12/28 04:06:04;;;;;;;2.00;1.20;;;8.30;99.90;;;8.16;100.00;101015.13;5193091;28;20411;-81
2022/12/28 04:08:36;;;;;;;2.53;1.13;;;8.30;99.90;;;8.17;100.00;101009.09;5190815;28;20050;-81
2022/12/28 04:11:11;;;;;;;2.55;1.23;;;8.30;99.90;;;8.20;100.00;101003.16;5191055;28;20050;-80
2022/12/28 04:13:44;;;;;;;1.17;1.02;;;8.30;99.90;;;8.18;100.00;101000.50;5206215;28;20512;-81
2022/12/28 04:16:18;;;;;;;1.75;1.10;;;8.30;99.90;;;8.19;100.00;101001.38;5207161;28;20423;-80
2022/12/28 04:18:51;;;;;;;2.10;1.33;;;8.30;99.90;;;8.20;100.00;101001.44;5206870;28;20080;-80
2022/12/28 04:21:25;;;;;;;2.80;1.15;;;8.30;99.90;;;8.20;100.00;101004.03;5193951;28;20042;-81
2022/12/28 04:23:59;;;;;;;2.58;1.20;;;8.30;99.90;;;8.19;100.00;101002.28;5197779;28;20042;-81
2022/12/28 04:26:31;;;;;;;3.00;1.10;;;8.40;99.90;;;8.22;100.00;101004.13;5214785;28;20073;-81
2022/12/28 04:29:04;;;;;;;2.90;1.02;;;8.30;99.90;;;8.21;100.00;101002.34;5215366;28;20038;-80
2022/12/28 04:31:44;;;;;;;2.35;1.42;;;8.30;99.90;;;8.24;100.00;101000.78;5202801;28;20101;-82
2022/12/28 04:34:18;;;;;;;2.75;1.30;;;8.40;99.90;;;8.24;100.00;100990.41;5209023;28;20041;-81
2022/12/28 04:37:00;;;;;;;3.47;1.30;;;8.40;99.90;;;8.25;100.00;100992.16;5206749;28;20050;-80
2022/12/28 04:39:33;;;;;;;4.32;1.33;;;8.40;99.90;;;8.27;100.00;100984.44;5206342;28;20057;-82
2022/12/28 04:42:05;;;;;;;2.55;1.40;;;8.40;99.90;;;8.28;100.00;100981.03;5207439;28;20050;-81
2022/12/28 04:44:37;;;;;;;1.95;1.50;;;8.40;99.90;;;8.28;100.00;100981.03;5206662;28;20057;-81
2022/12/28 04:47:09;;;;;;;2.58;1.30;;;8.40;99.90;;;8.28;100.00;100981.94;5191205;28;20049;-82
2022/12/28 04:49:41;;;;;;;1.73;1.02;;;8.40;99.90;;;8.29;100.00;100978.53;5190388;28;20057;-82
2022/12/28 04:52:14;;;;;;;3.88;1.20;;;8.40;99.90;;;8.31;100.00;100976.00;5189351;28;20053;-83
2022/12/28 04:54:46;;;;;;;3.03;1.13;;;8.40;99.90;;;8.31;100.00;100966.50;5205214;28;20056;-80
2022/12/28 04:57:18;;;;;;;2.72;1.13;;;8.40;99.90;;;8.34;100.00;100979.59;5189775;28;20042;-80
2022/12/28 04:59:51;;;;;;;2.63;1.02;;;8.40;99.90;;;8.35;100.00;100968.47;5212966;28;20041;-86
2022/12/28 05:02:23;;;;;;;2.80;1.10;;;8.40;99.90;;;8.37;100.00;100977.19;5210766;28;20044;-85
2022/12/28 05:04:55;;;;;;;2.65;1.15;;;8.50;99.90;;;8.38;100.00;100971.19;5211318;28;20086;-84
2022/12/28 05:07:29;;;;;;;3.78;1.48;;;8.50;99.90;;;8.41;100.00;100970.41;5204485;28;20105;-81
2022/12/28 05:10:01;;;;;;;2.63;1.00;;;8.50;99.90;;;8.41;100.00;100966.16;5197519;28;20106;-80
2022/12/28 05:12:33;;;;;;;1.15;0.82;;;8.50;99.90;;;8.45;100.00;100968.88;5195546;28;20046;-80
2022/12/28 05:15:07;;;;;;;2.05;1.20;;;8.50;99.90;;;8.48;100.00;100964.72;5196356;28;20050;-82
2022/12/28 05:17:39;;;;;;;2.28;1.25;;;8.60;99.90;;;8.50;100.00;100956.97;5198258;28;20472;-80
2022/12/28 05:20:12;;;;;;;1.85;1.20;;;8.60;99.90;;;8.54;100.00;100958.88;5196599;28;20054;-80
2022/12/28 05:22:45;;;;;;;1.52;0.77;;;8.60;99.90;;;8.60;100.00;100953.97;5195482;28;20050;-80
2022/12/28 05:25:17;;;;;;;1.17;0.75;;;8.70;99.90;;;8.65;100.00;100947.28;5195064;28;20046;-81
2022/12/28 05:27:49;;;;;;;0.75;0.75;;;8.70;99.90;;;8.75;100.00;100943.38;5195947;28;20061;-84
2022/12/28 05:30:21;;;;;;;1.00;0.70;;;8.70;99.90;;;8.80;100.00;100944.47;5198258;28;20059;-81
2022/12/28 05:32:53;;;;;;;1.92;0.73;;;8.80;99.90;;;8.84;100.00;100938.59;5198719;28;20053;-84
2022/12/28 05:35:25;;;;;;;0.77;0.55;;;8.90;99.90;;;8.83;100.00;100932.50;5199641;28;20069;-82
2022/12/28 05:37:59;;;;;;;1.30;0.65;;;8.90;99.90;;;8.88;100.00;100930.09;5197201;28;20045;-81
2022/12/28 05:40:31;;;;;;;0.70;0.55;;;8.90;99.90;;;8.88;100.00;100928.41;5192397;28;20662;-81
2022/12/28 05:43:03;;;;;;;1.48;0.75;;;8.90;99.90;;;8.88;100.00;100931.00;5193275;28;20057;-80
2022/12/28 05:45:35;;;;;;;0.60;0.60;;;8.90;99.90;;;8.92;100.00;100922.50;5193229;28;20046;-81
2022/12/28 05:48:07;;;;;;;1.33;0.55;;;9.00;99.90;;;8.97;100.00;100923.59;5193211;28;20064;-81
2022/12/28 05:50:40;;;;;;;1.00;0.80;;;9.00;99.90;;;9.00;100.00;100925.44;5193306;28;20046;-80
2022/12/28 05:53:13;;;;;;;1.25;0.60;;;9.00;99.90;;;9.02;100.00;100922.91;5193546;28;20050;-80
2022/12/28 05:55:45;;;;;;;1.13;0.65;;;9.00;99.90;;;9.05;100.00;100910.03;5194787;28;20044;-80
2022/12/28 05:58:17;;;;;;;0.63;0.63;;;9.10;99.90;;;9.05;100.00;100908.31;5193740;28;20045;-80
2022/12/28 06:00:49;;;;;;;0.70;0.52;;;9.10;99.90;;;9.04;100.00;100916.03;5193763;28;20081;-80
2022/12/28 06:03:21;;;;;;;0.70;0.65;;;9.10;99.90;;;9.07;100.00;100911.88;5195102;28;20053;-81
2022/12/28 06:05:53;;;;;;;1.83;0.60;;;9.20;99.90;;;9.09;100.00;100906.72;5213064;28;20072;-80
2022/12/28 06:08:28;;;;;;;0.75;0.63;;;9.20;99.90;;;9.13;100.00;100916.47;5215131;28;20045;-80
2022/12/28 06:11:02;;;;;;;3.42;1.10;;;9.20;99.90;;;9.11;100.00;100910.28;5216581;28;20055;-81
2022/12/28 06:13:35;;;;;;;0.93;0.60;;;9.20;99.90;;;9.13;100.00;100906.94;5197503;28;20041;-81
2022/12/28 06:16:09;;;;;;;0.60;0.52;;;9.20;99.90;;;9.13;100.00;100898.25;5196182;28;20049;-81
2022/12/28 06:18:41;;;;;;;2.20;0.82;;;9.20;99.90;;;9.18;100.00;100891.50;5212419;28;20046;-81
2022/12/28 06:21:18;;;;;;;0.70;0.70;;;9.20;99.90;;;9.19;100.00;100898.47;5214277;28;20057;-85
2022/12/28 06:23:52;;;;;;;1.02;0.63;;;9.20;99.90;;;9.18;100.00;100888.91;5214849;28;20041;-82
2022/12/28 06:26:25;;;;;;;1.27;0.98;;;9.20;99.90;;;9.18;100.00;100892.38;5215124;28;20050;-83
2022/12/28 06:28:57;;;;;;;0.80;0.65;;;9.20;99.90;;;9.17;100.00;100887.13;5196608;28;20128;-81
2022/12/28 06:31:33;;;;;;;1.15;0.73;;;9.20;99.90;;;9.20;100.00;100889.88;5215720;28;20038;-82
2022/12/28 06:34:08;;;;;;;0.95;0.82;;;9.20;99.90;;;9.21;100.00;100886.44;5214917;28;20060;-81
2022/12/28 06:36:42;;;;;;;0.63;0.63;;;9.20;99.90;;;9.22;100.00;100885.63;5217600;28;20045;-83
2022/12/28 06:39:15;;;;;;;1.88;0.60;;;9.30;99.90;;;9.22;100.00;100875.22;5203986;28;20053;-79
2022/12/28 06:41:47;;;;;;;1.00;0.90;;;9.30;99.90;;;9.24;100.00;100873.56;5203466;28;20076;-85
2022/12/28 06:44:19;;;;;;;1.80;0.73;;;9.30;99.90;;;9.23;100.00;100869.19;5220491;28;20149;-82
2022/12/28 06:46:51;;;;;;;1.20;0.63;;;9.30;99.90;;;9.25;100.00;100862.31;5220273;28;20071;-81
2022/12/28 06:49:24;;;;;;;0.43;0.43;;;9.30;99.90;;;9.27;100.00;100862.41;5219315;28;20044;-81
2022/12/28 06:51:56;;;;;;;0.40;0.40;;;9.30;99.90;;;9.25;100.00;100875.31;5204469;28;20052;-82
2022/12/28 06:54:29;;;;;;;1.42;0.60;;;9.30;99.90;;;9.28;100.00;100867.66;5203676;28;20491;-80
2022/12/28 06:57:01;;;;;;;0.60;0.60;;;9.30;99.90;;;9.27;100.00;100871.09;5202887;28;20060;-81
2022/12/28 06:59:33;;;;;;;1.65;0.63;;;9.30;99.90;;;9.27;100.00;100868.50;5201909;28;20106;-83
2022/12/28 07:02:06;;;;;;;1.25;0.75;;;9.40;99.90;;;9.31;100.00;100864.28;5200882;28;20053;-84
2022/12/28 07:04:38;;;;;;;0.65;0.65;;;9.40;99.90;;;9.30;100.00;100866.00;5202737;28;20095;-82
2022/12/28 07:07:10;;;;;;;1.83;0.60;;;9.30;99.90;;;9.29;100.00;100872.03;5221731;28;20045;-83
2022/12/28 07:09:43;;;;;;;0.85;0.63;;;9.30;99.90;;;9.33;100.00;100871.34;5206936;28;20125;-82
2022/12/28 07:12:15;;;;;;;1.00;0.80;;;9.40;99.90;;;9.35;100.00;100880.09;5208280;28;20050;-79
2022/12/28 07:17:35;;;;;;;1.13;0.60;;;9.40;99.90;;;9.37;100.00;100870.63;5179180;28;20046;-59
2022/12/28 07:20:09;;;;;;;1.55;0.68;;;9.40;99.90;;;9.37;100.00;100864.53;5185137;28;20053;-59
2022/12/28 07:22:41;;;;;;;1.05;0.43;;;9.40;99.90;;;9.37;100.00;100875.84;5185423;28;20490;-59
2022/12/28 07:25:14;;;;;;;2.08;0.73;;;9.40;99.90;;;9.37;100.00;100861.94;5185554;28;20049;-59
2022/12/28 07:27:47;;;;;;;1.02;0.60;;;9.40;99.90;;;9.38;100.00;100862.00;5185079;28;20048;-59
2022/12/28 07:30:19;;;;;;;1.25;0.50;;;9.40;99.90;;;9.37;100.00;100865.44;5185453;28;20415;-59
2022/12/28 07:32:51;;;;;;;0.52;0.52;;;9.40;99.90;;;9.38;100.00;100864.59;5185451;28;20050;-59
2022/12/28 07:35:23;;;;;;;0.93;0.70;;;9.40;99.90;;;9.39;100.00;100861.19;5185086;28;20081;-59
2022/12/28 07:37:55;;;;;;;0.77;0.55;;;9.40;99.90;;;9.41;100.00;100867.34;5184812;28;20050;-59
2022/12/28 07:40:28;;;;;;;1.77;0.63;;;9.40;99.90;;;9.40;100.00;100865.56;5185361;28;20073;-59
2022/12/28 07:43:00;;;;;;;0.55;0.50;;;9.40;99.90;;;9.42;100.00;100858.72;5184933;28;20042;-59
2022/12/28 07:45:33;;;;;;;0.60;0.52;;;9.50;99.90;;;9.42;100.00;100857.81;5184671;28;20092;-59
2022/12/28 07:48:05;;;;;;;0.63;0.60;;;9.50;99.90;;;9.42;100.00;100857.81;5184697;28;20045;-60
2022/12/28 07:50:37;;;;;;;0.82;0.45;;;9.50;99.90;;;9.41;100.00;100862.13;5184958;28;20429;-59
2022/12/28 07:53:09;;;;;;;0.90;0.50;;;9.50;99.90;;;9.43;100.00;100864.78;5185403;28;20124;-59
2022/12/28 07:55:43;;;;;;;1.35;0.60;;;9.50;99.90;;;9.42;100.00;100865.63;5184802;28;20052;-60
2022/12/28 07:58:15;;;;;;;1.17;0.60;;;9.40;99.90;;;9.46;100.00;100870.13;5184815;28;20050;-59
2022/12/28 08:00:47;;;;;;;1.00;0.73;;;9.50;99.90;;;9.45;100.00;100869.25;5184741;28;20061;-59
2022/12/28 08:03:20;;;;;;;0.70;0.52;;;9.50;99.90;;;9.46;100.00;100871.03;5184842;28;20053;-59
2022/12/28 08:05:52;;;;;;;1.17;0.52;;;9.50;99.90;;;9.47;100.00;100869.31;5184991;28;20053;-63
2022/12/28 08:08:24;;;;;;;0.52;0.52;;;9.50;99.90;;;9.47;100.00;100872.78;5185016;28;20045;-59
2022/12/28 08:11:01;;;;;;;0.40;0.40;;;9.50;99.90;;;9.47;100.00;100866.69;5185153;28;20498;-59
2022/12/28 08:13:35;;;;;;;0.95;0.43;;;9.50;99.90;;;9.55;100.00;100869.59;5184827;28;20381;-59
2022/12/28 08:16:09;;;;;;;0.68;0.63;;;9.50;99.90;;;9.55;100.00;100867.00;5184514;28;20506;-59
2022/12/28 08:18:42;;;;;;;1.35;0.75;;;9.50;99.90;;;9.59;100.00;100866.31;5181109;28;20089;-59
2022/12/28 08:21:19;;;;;;;0.80;0.80;;;9.60;99.90;;;9.56;100.00;100873.97;5173466;28;20053;-59
2022/12/28 08:23:52;;;;;;;1.35;0.60;;;9.60;99.90;;;9.57;100.00;100873.16;5184403;28;20046;-59
2022/12/28 08:26:28;;;;;;;1.13;0.60;;;9.60;99.90;;;9.58;100.00;100880.13;5184420;28;20050;-59
2022/12/28 08:29:04;;;;;;;1.50;0.60;;;9.60;99.90;;;9.57;100.00;100876.63;5184330;28;20050;-58
2022/12/28 08:31:38;;;;;;;1.88;0.57;;;9.60;99.90;;;9.59;100.00;100877.63;5175767;28;20057;-59
2022/12/28 08:34:13;;;;;;;1.95;0.65;;;9.60;99.90;;;9.68;100.00;100871.88;5183409;28;20042;-59
2022/12/28 08:36:45;;;;;;;1.95;0.68;;;9.60;99.90;;;9.69;100.00;100876.25;5184227;28;20046;-59
2022/12/28 08:39:18;;;;;;;0.68;0.65;;;9.60;99.90;;;9.69;100.00;100866.72;5184258;28;20337;-59
2022/12/28 08:41:51;;;;;;;2.38;0.73;;;9.70;99.90;;;9.67;100.00;100867.50;5184390;28;20033;-58
2022/12/28 08:44:23;;;;;;;2.55;1.23;;;9.70;99.90;;;9.71;100.00;100877.19;5184169;28;20049;-59
2022/12/28 08:46:56;;;;;;;3.15;0.73;;;9.70;99.90;;;9.70;100.00;100859.78;5183993;28;20494;-58
2022/12/28 08:49:28;;;;;;;1.15;0.57;;;9.70;99.90;;;9.71;100.00;100862.44;5183687;28;20092;-59
2022/12/28 08:52:00;;;;;;;0.85;0.85;;;9.70;99.90;;;9.75;100.00;100868.69;5184022;28;20046;-59
2022/12/28 08:54:32;;;;;;;0.65;0.57;;;9.70;99.90;;;9.76;100.00;100870.44;5166393;28;20069;-59
2022/12/28 08:57:06;;;;;;;1.52;0.70;;;9.70;99.90;;;9.78;100.00;100881.84;5182737;28;20045;-59
2022/12/28 08:59:38;;;;;;;1.10;0.63;;;9.70;99.90;;;9.78;100.00;100871.41;5182653;28;20045;-59
2022/12/28 09:02:13;;;;;;;0.68;0.52;;;9.80;99.90;;;9.81;100.00;100866.31;5184017;28;20052;-59
2022/12/28 09:04:45;;;;;;;1.25;0.80;;;9.80;99.90;;;9.83;100.00;100867.25;5183434;28;20042;-59
2022/12/28 09:07:17;;;;;;;0.80;0.80;;;9.80;99.90;;;9.95;100.00;100872.06;5183391;28;20046;-60
2022/12/28 09:09:49;;;;;;;1.58;0.65;;;9.90;99.90;;;10.07;100.00;100869.91;5183590;28;20050;-60
2022/12/28 09:12:23;;;;;;;2.15;0.73;;;10.00;99.90;;;10.15;100.00;100865.88;5183860;28;20053;-60
2022/12/28 09:14:55;;;;;;;1.92;0.73;;;10.10;99.90;;;10.20;100.00;100869.56;5183629;28;20038;-60
2022/12/28 09:17:27;;;;;;;1.10;1.00;;;10.20;99.90;;;10.28;100.00;100868.16;5183046;28;20049;-60
2022/12/28 09:19:59;;;;;;;1.23;0.68;;;10.30;99.90;;;10.30;100.00;100862.97;5183978;28;20058;-60
2022/12/28 09:22:31;;;;;;;1.20;0.65;;;10.30;99.90;;;10.27;100.00;100860.28;5183691;28;20049;-60
2022/12/28 09:25:03;;;;;;;3.42;0.80;;;10.30;99.90;;;10.25;100.00;100869.78;5183757;28;20044;-60
2022/12/28 09:27:37;;;;;;;2.25;0.77;;;10.30;99.90;;;10.26;100.00;100856.78;5183225;28;20745;-60
2022/12/28 09:30:10;;;;;;;1.73;0.90;;;10.30;99.90;;;10.25;100.00;100868.03;5183128;28;20506;-60
2022/12/28 09:32:42;;;;;;;2.05;0.60;;;10.20;99.90;;;10.22;100.00;100867.00;5183213;28;20057;-60
2022/12/28 09:35:15;;;;;;;1.98;0.90;;;10.20;99.90;;;10.18;100.00;100859.91;5183200;28;20049;-60
2022/12/28 09:37:47;;;;;;;0.75;0.55;;;10.20;99.90;;;10.19;100.00;100866.91;5183182;28;20060;-60
2022/12/28 09:40:19;;;;;;;0.90;0.60;;;10.20;99.90;;;10.18;100.00;100863.41;5183565;28;20057;-60
2022/12/28 09:42:52;;;;;;;0.73;0.52;;;10.20;99.90;;;10.24;100.00;100865.41;5176175;28;20049;-60
2022/12/28 09:45:26;;;;;;;1.30;0.52;;;10.20;99.90;;;10.24;100.00;100862.78;5170647;28;20037;-62
2022/12/28 09:48:03;;;;;;;0.77;0.73;;;10.20;99.90;;;10.26;100.00;100868.94;5183562;28;20072;-61
2022/12/28 09:50:36;;;;;;;3.42;0.60;;;10.30;99.90;;;10.27;100.00;100870.69;5178966;28;20070;-62
2022/12/28 09:53:30;;;;;;;1.50;0.55;;;10.20;99.90;;;10.30;100.00;100870.81;5182547;28;20133;-62
2022/12/28 09:56:05;;;;;;;;;;;10.30;99.90;;;10.30;100.00;100865.59;5175003;28;20129;-60
2022/12/28 09:58:43;;;;;;;0.93;0.60;;;10.30;99.90;;;10.29;100.00;100874.25;5183176;28;20337;-60
2022/12/28 10:01:17;;;;;;;0.60;0.60;;;10.30;99.90;;;10.32;100.00;100863.94;5183374;28;20054;-60
2022/12/28 10:03:49;;;;;;;0.52;0.52;;;10.30;99.90;;;10.30;100.00;100870.81;5179631;28;20042;-61
2022/12/28 10:06:25;;;;;;;1.48;0.80;;;10.30;99.90;;;10.43;100.00;100866.94;5183174;28;20042;-60
2022/12/28 10:09:01;;;;;;;2.72;0.70;;;10.40;99.90;;;10.45;100.00;100866.16;5181662;28;20046;-60
2022/12/28 10:11:40;;;;;;;2.88;0.98;;;10.50;99.90;;;10.44;100.00;100864.41;5176831;28;20133;-60
2022/12/28 10:14:27;;;;;;;0.60;0.50;;;10.40;99.90;;;10.42;100.00;100866.03;5187623;28;20042;-62
2022/12/28 10:16:59;;;;;;;1.13;0.63;;;10.40;99.90;;;10.45;100.00;100866.16;5187416;28;20046;-60
2022/12/28 10:19:31;;;;;;;0.75;0.50;;;10.40;99.90;;;10.42;100.00;100863.44;5187573;28;20042;-60
2022/12/28 10:22:06;;;;;;;1.10;0.60;;;10.40;99.90;;;10.43;100.00;100866.94;5188111;28;20042;-61
2022/12/28 10:24:40;;;;;;;1.35;0.60;;;10.40;99.90;;;10.46;100.00;100860.13;5187467;28;20048;-59
2022/12/28 10:27:20;;;;;;;0.55;0.55;;;10.40;99.90;;;10.42;100.00;100854.72;5169776;28;20507;-60
2022/12/28 10:29:54;;;;;;;0.63;0.55;;;10.40;99.90;;;10.45;100.00;100854.88;5187467;28;20048;-60
2022/12/28 10:32:26;;;;;;;1.67;0.82;;;10.40;99.90;;;10.47;100.00;100854.06;5187374;28;20057;-60
2022/12/28 10:35:01;;;;;;;1.30;0.70;;;10.40;99.90;;;10.49;100.00;100830.66;5187341;28;20054;-60
2022/12/28 10:37:36;;;;;;;0.50;0.50;;;10.40;99.90;;;10.48;100.00;100839.31;5186733;28;20049;-59
2022/12/28 10:40:24;;;;;;;1.70;0.80;;;10.50;99.90;;;10.49;100.00;100836.75;5187569;28;20483;-60
2022/12/28 10:42:56;;;;;;;;;;;10.50;99.90;;;10.48;100.00;100835.00;5186066;28;20556;-60
2022/12/28 10:45:36;;;;;;;3.47;0.73;;;10.50;99.90;;;10.50;100.00;100825.53;5183567;28;19936;-61
2022/12/28 10:48:13;;;;;;;1.20;0.63;;;10.50;99.90;;;10.50;100.00;100825.53;5186665;28;20046;-60
2022/12/28 10:50:50;;;;;;;1.23;0.80;;;10.50;99.90;;;10.53;100.00;100815.19;5187106;28;20050;-60
2022/12/28 10:53:31;;;;;;;1.23;0.60;;;10.50;99.90;;;10.56;100.00;100810.09;5187080;28;20403;-61
2022/12/28 10:56:20;;;;;;;2.15;0.90;;;10.50;99.90;;;10.59;100.00;100818.03;5187068;28;20042;-60
2022/12/28 10:58:54;;;;;;;1.55;0.80;;;10.60;99.90;;;10.60;100.00;100814.56;5186672;28;20057;-60
2022/12/28 11:01:30;;;;;;;3.88;1.05;;;10.60;99.90;;;10.64;100.00;100809.50;5186655;28;20056;-60
2022/12/28 11:04:06;;;;;;;3.83;1.20;;;10.60;99.90;;;10.66;100.00;100800.00;5186976;28;20521;-60
2022/12/28 11:06:52;;;;;;;2.22;0.98;;;10.60;99.90;;;10.74;100.00;100802.00;5186767;28;20457;-60
2022/12/28 11:09:27;;;;;;;1.17;0.95;;;10.70;99.90;;;10.77;100.00;100801.25;5186248;28;20518;-62
2022/12/28 11:12:21;;;;;;;5.13;1.55;;;10.70;99.90;;;10.73;100.00;100804.56;5186713;28;20057;-60
2022/12/28 11:14:55;;;;;;;4.00;1.02;;;10.70;99.90;;;10.69;100.00;100797.47;5186694;28;20490;-60
2022/12/28 11:17:30;;;;;;;3.10;0.90;;;10.60;99.90;;;10.66;100.00;100795.66;5186168;28;20050;-61
2022/12/28 11:20:14;;;;;;;2.40;0.90;;;10.60;99.90;;;10.71;100.00;100798.44;5186320;28;20042;-60